Berkley, MA

12:53 PM EST on January 30, 2015 (GMT -0500)
Rock of Berkley Weather | Change Station
CLOSE
Current Station
Personal Weather Station
Location: Berkley, MA
Elevation: 83 ft
Nearby Weather Stations

Elev 83 ft 41.85 °N, 71.05 °W | Updated 6 minutes ago

Overcast
Overcast
33.3 °F
Feels Like 33 °F
N
0.0
Wind Variable Wind from NW
Gusts 3.0 mph

Today
High -- | Low -- °F
--% Chance of Precip.
Yesterday
High -- | Low -- °F
Precip. -- in
6:58 AM 4:56 PM
Waxing Gibbous, 84% visible
Pressure 29.74 in
Visibility 4.0 miles
Clouds Mostly Cloudy 600 ft
Overcast 1000 ft
Windchill 33 °F
Dew Point 32 °F
Humidity 97%
Rainfall 0.05 in
Snow Depth Not available.
UV 1 out of 12
Pollen .10 out of 12
Air Quality Not available.
Flu Activity Not available.
SPECI KTAN 301716Z AUTO 28003KT 4SM BR BKN006 OVC010 01/00 A2974 RMK AO2 UPE10 CIG 003V009 P0000 T00110000

More Conditions Fewer Conditions

Pressure 29.74 in
Visibility 4.0 miles
Clouds Mostly Cloudy 600 ft
Overcast 1000 ft
Windchill 33 °F
Dew Point 32 °F
Humidity 97%
Rainfall 0.05 in
Snow Depth Not available.
UV 1 out of 12
Pollen .10 out of 12
Air Quality Not available.
Flu Activity Not available.
SPECI KTAN 301716Z AUTO 28003KT 4SM BR BKN006 OVC010 01/00 A2974 RMK AO2 UPE10 CIG 003V009 P0000 T00110000

More Conditions Fewer Conditions

10-Day Weather Forecast

Almanac

Astronomy

Jan. 30, 2015 Rise Set
Actual Time
Civil Twilight
Nautical Twilight
Astronomical Twilight
Moon
Length of Visible Light
Length of Day
Tomorrow will be .
, % of the Moon is Illuminated

Today's Extremes

State Highs State Lows

Community

WunderPhotos

Upload Photos

1,791,835 photos uploaded!

WunderBlogs® & News

Nearby

Air Quality

  Air Quality AQ Index Pollutant
Not available.

Snow Depth

Station Depth Elevation

Earthquake Activity

City Distance Mag. Time & Date
Minimum magnitude displayed is 2.5.

Coastal Water Temperatures

Place Temperature

Nearby Weather Stations